ナイロビ の空港の天気 - METARとTAF

ジョモ・ケニヤッタ国際空港 ( HKJK / NBO ) - ケニア ナイロビ
飛行場実況気象(Metar)
観測時間05/29 02:00 EAT (05/28 23:00 UTC)
風向・風速南西 2m/s
視程10km以上
天気現象
全天の8割程度の雲 雲底高度 520m
気温17℃
湿度88%
気圧1022hPa
METARHKJK 282300Z 23004KT 9999 BKN017 17/15 Q1022 NOSIG
過去の天気等 Google飛行場航空写真 Wunderground天気予報

過去48時間のMETAR

飛行場予報(TAF)
発表時間: 5/28 14:00 EAT (5/28 11:00 UTC)
予報対象時間: 28日15時 EAT ~ 29日21時 EAT
風向・風速東南東 5m/s
視程10km以上
全天の8割程度の雲 雲底高度 760m
28日15時 EAT ~ 28日19時 EAT に一時的に
天気現象弱い雷雨
少しの積乱雲 雲底高度 580m
全天の8割程度の雲 雲底高度 610m
全天の8割程度の雲 雲底高度 2440m
28日23時 EAT ~ 29日2時 EAT に徐々に
風向・風速不定 1m/s
天気現象弱い雨
少しの雲 雲底高度 240m
全天の8割程度の雲 雲底高度 460m
全天の8割程度の雲 雲底高度 m
29日11時 EAT ~ 29日14時 EAT に徐々に
風向・風速東南東 5m/s
天気現象運行に影響にある天気現象が終了
全天の8割程度の雲 雲底高度 760m
29日15時 EAT ~ 29日19時 EAT に一時的に
天気現象弱い雷雨
少しの積乱雲 雲底高度 580m
全天の8割程度の雲 雲底高度 610m
全天の8割程度の雲 雲底高度 2440m
TAF HKJK 281100Z 2812/2918 12010KT 9999 BKN025
TEMPO 2812/2816 -TSRA FEW019CB BKN020 BKN080
BECMG 2820/2823 VRB02KT -RA FEW008 BKN015 BKN0 80
BECMG 2908/2911 12010KT NSW BKN025
TEMPO 2912/2916 -TSRA FEW019CB BKN020 BKN080